sensor_id;sensor_type;location;lat;lon;timestamp;temperature;humidity
12006;DHT22;6062;47.294;12.182;2022-07-22T00:00:02;17.30;74.10
12006;DHT22;6062;47.294;12.182;2022-07-22T00:02:29;17.30;73.90
12006;DHT22;6062;47.294;12.182;2022-07-22T00:04:55;17.30;73.70
12006;DHT22;6062;47.294;12.182;2022-07-22T00:07:21;17.30;73.70
12006;DHT22;6062;47.294;12.182;2022-07-22T00:09:46;17.30;73.70
12006;DHT22;6062;47.294;12.182;2022-07-22T00:12:12;17.30;73.60
12006;DHT22;6062;47.294;12.182;2022-07-22T00:14:38;17.30;73.40
12006;DHT22;6062;47.294;12.182;2022-07-22T00:17:04;17.30;73.10
12006;DHT22;6062;47.294;12.182;2022-07-22T00:19:30;17.30;72.70
12006;DHT22;6062;47.294;12.182;2022-07-22T00:21:56;17.20;72.40
12006;DHT22;6062;47.294;12.182;2022-07-22T00:24:21;17.20;72.10
12006;DHT22;6062;47.294;12.182;2022-07-22T00:26:47;17.20;71.80
12006;DHT22;6062;47.294;12.182;2022-07-22T00:29:13;17.10;71.60
12006;DHT22;6062;47.294;12.182;2022-07-22T00:31:39;17.10;71.40
12006;DHT22;6062;47.294;12.182;2022-07-22T00:34:04;17.00;71.20
12006;DHT22;6062;47.294;12.182;2022-07-22T00:36:30;16.90;71.20
12006;DHT22;6062;47.294;12.182;2022-07-22T00:38:56;16.80;71.30
12006;DHT22;6062;47.294;12.182;2022-07-22T00:41:22;16.80;71.40
12006;DHT22;6062;47.294;12.182;2022-07-22T00:44:02;16.70;71.50
12006;DHT22;6062;47.294;12.182;2022-07-22T00:46:33;16.70;71.60
12006;DHT22;6062;47.294;12.182;2022-07-22T00:49:00;16.60;71.50
12006;DHT22;6062;47.294;12.182;2022-07-22T00:51:28;16.50;71.40
12006;DHT22;6062;47.294;12.182;2022-07-22T00:53:55;16.50;71.60
12006;DHT22;6062;47.294;12.182;2022-07-22T00:56:23;16.40;71.50
12006;DHT22;6062;47.294;12.182;2022-07-22T00:58:51;16.40;71.50
12006;DHT22;6062;47.294;12.182;2022-07-22T01:01:18;16.30;71.50
12006;DHT22;6062;47.294;12.182;2022-07-22T01:03:44;16.30;71.50
12006;DHT22;6062;47.294;12.182;2022-07-22T01:06:10;16.20;71.60
12006;DHT22;6062;47.294;12.182;2022-07-22T01:08:37;16.20;71.60
12006;DHT22;6062;47.294;12.182;2022-07-22T01:11:13;16.20;71.70
12006;DHT22;6062;47.294;12.182;2022-07-22T01:13:43;16.10;71.60
12006;DHT22;6062;47.294;12.182;2022-07-22T01:16:11;16.10;71.50
12006;DHT22;6062;47.294;12.182;2022-07-22T01:18:39;16.10;71.50
12006;DHT22;6062;47.294;12.182;2022-07-22T01:21:06;16.00;71.40
12006;DHT22;6062;47.294;12.182;2022-07-22T01:23:33;16.00;71.40
12006;DHT22;6062;47.294;12.182;2022-07-22T01:26:00;16.00;71.40
12006;DHT22;6062;47.294;12.182;2022-07-22T01:28:26;15.90;71.50
12006;DHT22;6062;47.294;12.182;2022-07-22T01:30:52;15.90;71.60
12006;DHT22;6062;47.294;12.182;2022-07-22T01:33:21;15.80;71.50
12006;DHT22;6062;47.294;12.182;2022-07-22T01:35:47;15.80;71.70
12006;DHT22;6062;47.294;12.182;2022-07-22T01:38:14;15.80;71.80
12006;DHT22;6062;47.294;12.182;2022-07-22T01:40:41;15.80;71.80
12006;DHT22;6062;47.294;12.182;2022-07-22T01:43:08;15.70;71.90
12006;DHT22;6062;47.294;12.182;2022-07-22T01:45:35;15.70;71.90
12006;DHT22;6062;47.294;12.182;2022-07-22T01:48:01;15.70;72.00
12006;DHT22;6062;47.294;12.182;2022-07-22T01:50:28;15.70;72.00
12006;DHT22;6062;47.294;12.182;2022-07-22T01:52:54;15.70;72.70
12006;DHT22;6062;47.294;12.182;2022-07-22T01:55:20;15.70;71.90
12006;DHT22;6062;47.294;12.182;2022-07-22T01:57:46;15.70;71.90
12006;DHT22;6062;47.294;12.182;2022-07-22T02:00:12;15.70;71.70
12006;DHT22;6062;47.294;12.182;2022-07-22T02:02:38;15.70;71.70
12006;DHT22;6062;47.294;12.182;2022-07-22T02:05:05;15.70;71.70
12006;DHT22;6062;47.294;12.182;2022-07-22T02:07:31;15.70;71.60
12006;DHT22;6062;47.294;12.182;2022-07-22T02:09:57;15.60;71.60
12006;DHT22;6062;47.294;12.182;2022-07-22T02:12:23;15.60;71.50
12006;DHT22;6062;47.294;12.182;2022-07-22T02:14:49;15.60;71.50
12006;DHT22;6062;47.294;12.182;2022-07-22T02:17:15;15.60;71.50
12006;DHT22;6062;47.294;12.182;2022-07-22T02:19:41;15.60;71.60
12006;DHT22;6062;47.294;12.182;2022-07-22T02:22:08;15.50;71.50
12006;DHT22;6062;47.294;12.182;2022-07-22T02:24:34;15.50;71.40
12006;DHT22;6062;47.294;12.182;2022-07-22T02:27:00;15.50;71.40
12006;DHT22;6062;47.294;12.182;2022-07-22T02:29:26;15.50;71.50
12006;DHT22;6062;47.294;12.182;2022-07-22T02:31:52;15.40;71.40
12006;DHT22;6062;47.294;12.182;2022-07-22T02:34:18;15.50;71.50
12006;DHT22;6062;47.294;12.182;2022-07-22T02:36:44;15.50;71.60
12006;DHT22;6062;47.294;12.182;2022-07-22T02:39:10;15.40;71.50
12006;DHT22;6062;47.294;12.182;2022-07-22T02:41:35;15.40;71.40
12006;DHT22;6062;47.294;12.182;2022-07-22T02:44:01;15.40;71.40
12006;DHT22;6062;47.294;12.182;2022-07-22T02:46:27;15.40;71.40
12006;DHT22;6062;47.294;12.182;2022-07-22T02:48:57;15.40;71.40
12006;DHT22;6062;47.294;12.182;2022-07-22T02:51:23;15.40;71.40
12006;DHT22;6062;47.294;12.182;2022-07-22T02:53:49;15.40;71.50
12006;DHT22;6062;47.294;12.182;2022-07-22T02:56:15;15.30;71.50
12006;DHT22;6062;47.294;12.182;2022-07-22T02:58:41;15.30;71.50
12006;DHT22;6062;47.294;12.182;2022-07-22T03:01:07;15.30;71.40
12006;DHT22;6062;47.294;12.182;2022-07-22T03:03:33;15.30;71.30
12006;DHT22;6062;47.294;12.182;2022-07-22T03:05:59;15.30;71.40
12006;DHT22;6062;47.294;12.182;2022-07-22T03:08:26;15.30;71.20
12006;DHT22;6062;47.294;12.182;2022-07-22T03:10:52;15.30;71.40
12006;DHT22;6062;47.294;12.182;2022-07-22T03:13:18;15.30;71.30
12006;DHT22;6062;47.294;12.182;2022-07-22T03:15:44;15.30;71.30
12006;DHT22;6062;47.294;12.182;2022-07-22T03:18:09;15.30;71.20
12006;DHT22;6062;47.294;12.182;2022-07-22T03:20:35;15.30;71.10
12006;DHT22;6062;47.294;12.182;2022-07-22T03:23:01;15.30;71.10
12006;DHT22;6062;47.294;12.182;2022-07-22T03:25:28;15.30;71.00
12006;DHT22;6062;47.294;12.182;2022-07-22T03:27:56;15.30;70.90
12006;DHT22;6062;47.294;12.182;2022-07-22T03:30:22;15.30;70.90
12006;DHT22;6062;47.294;12.182;2022-07-22T03:32:47;15.30;70.80
12006;DHT22;6062;47.294;12.182;2022-07-22T03:35:14;15.30;70.70
12006;DHT22;6062;47.294;12.182;2022-07-22T03:37:40;15.30;70.60
12006;DHT22;6062;47.294;12.182;2022-07-22T03:40:06;15.30;70.60
12006;DHT22;6062;47.294;12.182;2022-07-22T03:42:33;15.30;70.50
12006;DHT22;6062;47.294;12.182;2022-07-22T03:44:58;15.30;70.50
12006;DHT22;6062;47.294;12.182;2022-07-22T03:47:24;15.20;70.40
12006;DHT22;6062;47.294;12.182;2022-07-22T03:49:51;15.20;70.50
12006;DHT22;6062;47.294;12.182;2022-07-22T03:52:17;15.20;70.60
12006;DHT22;6062;47.294;12.182;2022-07-22T03:54:43;15.20;70.60
12006;DHT22;6062;47.294;12.182;2022-07-22T03:57:10;15.20;70.60
12006;DHT22;6062;47.294;12.182;2022-07-22T03:59:36;15.20;70.70
12006;DHT22;6062;47.294;12.182;2022-07-22T04:02:03;15.30;70.70
12006;DHT22;6062;47.294;12.182;2022-07-22T04:04:29;15.30;70.70
12006;DHT22;6062;47.294;12.182;2022-07-22T04:06:55;15.30;70.70
12006;DHT22;6062;47.294;12.182;2022-07-22T04:09:21;15.30;70.70
12006;DHT22;6062;47.294;12.182;2022-07-22T04:11:47;15.30;70.80
12006;DHT22;6062;47.294;12.182;2022-07-22T04:14:16;15.30;70.80
12006;DHT22;6062;47.294;12.182;2022-07-22T04:16:42;15.30;70.90
12006;DHT22;6062;47.294;12.182;2022-07-22T04:19:09;15.30;71.00
12006;DHT22;6062;47.294;12.182;2022-07-22T04:21:36;15.30;71.20
12006;DHT22;6062;47.294;12.182;2022-07-22T04:24:02;15.40;71.40
12006;DHT22;6062;47.294;12.182;2022-07-22T04:26:29;15.40;71.60
12006;DHT22;6062;47.294;12.182;2022-07-22T04:28:55;15.40;71.80
12006;DHT22;6062;47.294;12.182;2022-07-22T04:31:21;15.50;72.10
12006;DHT22;6062;47.294;12.182;2022-07-22T04:33:47;15.60;72.30
12006;DHT22;6062;47.294;12.182;2022-07-22T04:36:13;15.70;72.40
12006;DHT22;6062;47.294;12.182;2022-07-22T04:38:39;15.70;72.50
12006;DHT22;6062;47.294;12.182;2022-07-22T04:41:04;15.80;72.60
12006;DHT22;6062;47.294;12.182;2022-07-22T04:43:30;16.00;72.60
12006;DHT22;6062;47.294;12.182;2022-07-22T04:45:56;16.10;72.50
12006;DHT22;6062;47.294;12.182;2022-07-22T04:48:22;16.30;72.40
12006;DHT22;6062;47.294;12.182;2022-07-22T04:50:48;16.40;72.30
12006;DHT22;6062;47.294;12.182;2022-07-22T04:53:14;16.60;72.10
12006;DHT22;6062;47.294;12.182;2022-07-22T04:55:39;16.70;71.80
12006;DHT22;6062;47.294;12.182;2022-07-22T04:58:05;16.80;71.50
12006;DHT22;6062;47.294;12.182;2022-07-22T05:00:31;17.00;71.40
12006;DHT22;6062;47.294;12.182;2022-07-22T05:02:57;17.10;71.20
12006;DHT22;6062;47.294;12.182;2022-07-22T05:05:23;17.30;70.80
12006;DHT22;6062;47.294;12.182;2022-07-22T05:07:50;17.50;70.70
12006;DHT22;6062;47.294;12.182;2022-07-22T05:10:16;17.60;70.40
12006;DHT22;6062;47.294;12.182;2022-07-22T05:12:42;17.80;70.30
12006;DHT22;6062;47.294;12.182;2022-07-22T05:15:08;18.00;71.00
12006;DHT22;6062;47.294;12.182;2022-07-22T05:17:34;18.20;70.20
12006;DHT22;6062;47.294;12.182;2022-07-22T05:20:04;18.40;70.60
12006;DHT22;6062;47.294;12.182;2022-07-22T05:22:31;18.50;69.70
12006;DHT22;6062;47.294;12.182;2022-07-22T05:24:57;18.70;69.30
12006;DHT22;6062;47.294;12.182;2022-07-22T05:27:22;18.90;69.00
12006;DHT22;6062;47.294;12.182;2022-07-22T05:29:48;19.00;68.50
12006;DHT22;6062;47.294;12.182;2022-07-22T05:32:14;19.20;68.10
12006;DHT22;6062;47.294;12.182;2022-07-22T05:34:40;19.30;67.50
12006;DHT22;6062;47.294;12.182;2022-07-22T05:37:06;19.40;67.00
12006;DHT22;6062;47.294;12.182;2022-07-22T05:39:32;19.60;67.00
12006;DHT22;6062;47.294;12.182;2022-07-22T05:41:57;19.80;66.40
12006;DHT22;6062;47.294;12.182;2022-07-22T05:44:23;19.90;65.80
12006;DHT22;6062;47.294;12.182;2022-07-22T05:46:49;20.10;65.60
12006;DHT22;6062;47.294;12.182;2022-07-22T05:49:15;20.30;65.30
12006;DHT22;6062;47.294;12.182;2022-07-22T05:51:41;20.50;64.90
12006;DHT22;6062;47.294;12.182;2022-07-22T05:54:07;20.60;64.70
12006;DHT22;6062;47.294;12.182;2022-07-22T05:56:33;20.80;64.50
12006;DHT22;6062;47.294;12.182;2022-07-22T05:58:58;20.90;64.30
12006;DHT22;6062;47.294;12.182;2022-07-22T06:01:24;21.10;63.50
12006;DHT22;6062;47.294;12.182;2022-07-22T06:03:50;21.20;62.90
12006;DHT22;6062;47.294;12.182;2022-07-22T06:06:16;21.30;63.20
12006;DHT22;6062;47.294;12.182;2022-07-22T06:08:42;21.40;63.30
12006;DHT22;6062;47.294;12.182;2022-07-22T06:11:08;21.50;62.90
12006;DHT22;6062;47.294;12.182;2022-07-22T06:13:34;21.60;63.30
12006;DHT22;6062;47.294;12.182;2022-07-22T06:16:00;21.70;63.40
12006;DHT22;6062;47.294;12.182;2022-07-22T06:18:26;21.70;63.40
12006;DHT22;6062;47.294;12.182;2022-07-22T06:20:52;21.90;63.90
12006;DHT22;6062;47.294;12.182;2022-07-22T06:23:18;22.00;63.80
12006;DHT22;6062;47.294;12.182;2022-07-22T06:25:44;22.10;63.60
12006;DHT22;6062;47.294;12.182;2022-07-22T06:28:10;22.20;63.40
12006;DHT22;6062;47.294;12.182;2022-07-22T06:30:36;22.40;63.20
12006;DHT22;6062;47.294;12.182;2022-07-22T06:33:02;22.50;62.80
12006;DHT22;6062;47.294;12.182;2022-07-22T06:35:28;22.60;62.60
12006;DHT22;6062;47.294;12.182;2022-07-22T06:37:54;22.70;62.70
12006;DHT22;6062;47.294;12.182;2022-07-22T06:40:20;22.90;62.70
12006;DHT22;6062;47.294;12.182;2022-07-22T06:42:45;23.00;62.70
12006;DHT22;6062;47.294;12.182;2022-07-22T06:45:11;23.20;63.00
12006;DHT22;6062;47.294;12.182;2022-07-22T06:47:37;23.30;61.60
12006;DHT22;6062;47.294;12.182;2022-07-22T06:50:04;23.50;61.70
12006;DHT22;6062;47.294;12.182;2022-07-22T06:52:32;23.60;61.80
12006;DHT22;6062;47.294;12.182;2022-07-22T06:54:58;23.80;61.40
12006;DHT22;6062;47.294;12.182;2022-07-22T06:57:24;24.10;60.80
12006;DHT22;6062;47.294;12.182;2022-07-22T06:59:49;24.30;60.60
12006;DHT22;6062;47.294;12.182;2022-07-22T07:02:15;24.50;60.20
12006;DHT22;6062;47.294;12.182;2022-07-22T07:04:42;24.70;60.00
12006;DHT22;6062;47.294;12.182;2022-07-22T07:07:08;24.90;59.70
12006;DHT22;6062;47.294;12.182;2022-07-22T07:09:35;25.20;59.10
12006;DHT22;6062;47.294;12.182;2022-07-22T07:12:01;25.40;58.80
12006;DHT22;6062;47.294;12.182;2022-07-22T07:14:26;25.70;58.00
12006;DHT22;6062;47.294;12.182;2022-07-22T07:16:52;25.90;58.10
12006;DHT22;6062;47.294;12.182;2022-07-22T07:19:18;26.10;57.70
12006;DHT22;6062;47.294;12.182;2022-07-22T07:21:45;26.20;57.70
12006;DHT22;6062;47.294;12.182;2022-07-22T07:24:11;26.30;56.80
12006;DHT22;6062;47.294;12.182;2022-07-22T07:26:37;26.40;56.40
12006;DHT22;6062;47.294;12.182;2022-07-22T07:29:03;26.40;56.30
12006;DHT22;6062;47.294;12.182;2022-07-22T07:31:29;26.50;56.30
12006;DHT22;6062;47.294;12.182;2022-07-22T07:33:55;26.50;56.40
12006;DHT22;6062;47.294;12.182;2022-07-22T07:36:21;26.50;56.10
12006;DHT22;6062;47.294;12.182;2022-07-22T07:38:47;26.50;56.00
12006;DHT22;6062;47.294;12.182;2022-07-22T07:41:13;26.50;55.60
12006;DHT22;6062;47.294;12.182;2022-07-22T07:43:39;26.50;55.50
12006;DHT22;6062;47.294;12.182;2022-07-22T07:46:05;26.50;55.30
12006;DHT22;6062;47.294;12.182;2022-07-22T07:48:31;26.50;55.60
12006;DHT22;6062;47.294;12.182;2022-07-22T07:50:57;26.60;55.70
12006;DHT22;6062;47.294;12.182;2022-07-22T07:53:22;26.60;55.80
12006;DHT22;6062;47.294;12.182;2022-07-22T07:55:48;26.60;56.70
12006;DHT22;6062;47.294;12.182;2022-07-22T07:58:14;26.60;55.80
12006;DHT22;6062;47.294;12.182;2022-07-22T08:00:40;26.70;55.60
12006;DHT22;6062;47.294;12.182;2022-07-22T08:03:08;26.80;55.30
12006;DHT22;6062;47.294;12.182;2022-07-22T08:05:34;26.90;55.50
12006;DHT22;6062;47.294;12.182;2022-07-22T08:08:00;27.00;55.80
12006;DHT22;6062;47.294;12.182;2022-07-22T08:10:26;27.00;55.30
12006;DHT22;6062;47.294;12.182;2022-07-22T08:13:29;27.10;53.90
12006;DHT22;6062;47.294;12.182;2022-07-22T08:15:55;27.20;54.60
12006;DHT22;6062;47.294;12.182;2022-07-22T08:18:21;27.20;54.20
12006;DHT22;6062;47.294;12.182;2022-07-22T08:20:47;27.30;53.80
12006;DHT22;6062;47.294;12.182;2022-07-22T08:23:13;27.40;54.60
12006;DHT22;6062;47.294;12.182;2022-07-22T08:25:39;27.50;52.20
12006;DHT22;6062;47.294;12.182;2022-07-22T08:28:05;27.70;52.90
12006;DHT22;6062;47.294;12.182;2022-07-22T08:30:31;27.80;51.20
12006;DHT22;6062;47.294;12.182;2022-07-22T08:32:57;27.90;50.90
12006;DHT22;6062;47.294;12.182;2022-07-22T08:35:23;28.00;51.50
12006;DHT22;6062;47.294;12.182;2022-07-22T08:37:50;28.10;50.50
12006;DHT22;6062;47.294;12.182;2022-07-22T08:40:17;28.20;50.60
12006;DHT22;6062;47.294;12.182;2022-07-22T08:42:44;28.30;50.00
12006;DHT22;6062;47.294;12.182;2022-07-22T08:45:14;28.40;49.70
12006;DHT22;6062;47.294;12.182;2022-07-22T08:47:44;28.40;48.60
12006;DHT22;6062;47.294;12.182;2022-07-22T08:50:11;28.40;49.40
12006;DHT22;6062;47.294;12.182;2022-07-22T08:52:37;28.40;50.70
12006;DHT22;6062;47.294;12.182;2022-07-22T08:55:04;28.50;50.70
12006;DHT22;6062;47.294;12.182;2022-07-22T08:57:32;28.50;49.60
12006;DHT22;6062;47.294;12.182;2022-07-22T08:59:59;28.60;49.90
12006;DHT22;6062;47.294;12.182;2022-07-22T09:02:26;28.70;49.40
12006;DHT22;6062;47.294;12.182;2022-07-22T09:04:56;28.70;49.90
12006;DHT22;6062;47.294;12.182;2022-07-22T09:07:25;28.80;49.50
12006;DHT22;6062;47.294;12.182;2022-07-22T09:09:52;28.90;50.30
12006;DHT22;6062;47.294;12.182;2022-07-22T09:12:18;29.10;49.60
12006;DHT22;6062;47.294;12.182;2022-07-22T09:14:50;29.20;48.20
12006;DHT22;6062;47.294;12.182;2022-07-22T09:19:49;29.50;48.50
12006;DHT22;6062;47.294;12.182;2022-07-22T09:22:48;29.60;47.30
12006;DHT22;6062;47.294;12.182;2022-07-22T09:33:04;29.90;47.90
12006;DHT22;6062;47.294;12.182;2022-07-22T09:35:31;29.90;48.60
12006;DHT22;6062;47.294;12.182;2022-07-22T09:38:03;29.90;49.20
12006;DHT22;6062;47.294;12.182;2022-07-22T09:40:35;30.00;48.20
12006;DHT22;6062;47.294;12.182;2022-07-22T09:43:10;30.00;47.70
12006;DHT22;6062;47.294;12.182;2022-07-22T09:45:56;30.00;47.60
12006;DHT22;6062;47.294;12.182;2022-07-22T09:48:24;29.80;47.10
12006;DHT22;6062;47.294;12.182;2022-07-22T09:50:52;29.60;47.30
12006;DHT22;6062;47.294;12.182;2022-07-22T09:53:21;29.40;47.00
12006;DHT22;6062;47.294;12.182;2022-07-22T09:55:48;29.20;47.50
12006;DHT22;6062;47.294;12.182;2022-07-22T09:58:15;29.00;47.90
12006;DHT22;6062;47.294;12.182;2022-07-22T10:00:42;28.80;48.30
12006;DHT22;6062;47.294;12.182;2022-07-22T10:03:12;28.50;48.60
12006;DHT22;6062;47.294;12.182;2022-07-22T10:05:54;28.30;49.00
12006;DHT22;6062;47.294;12.182;2022-07-22T10:08:21;28.00;49.10
12006;DHT22;6062;47.294;12.182;2022-07-22T10:10:50;27.70;49.80
12006;DHT22;6062;47.294;12.182;2022-07-22T10:13:18;27.50;50.60
12006;DHT22;6062;47.294;12.182;2022-07-22T10:15:45;27.30;50.90
12006;DHT22;6062;47.294;12.182;2022-07-22T10:18:17;27.10;51.60
12006;DHT22;6062;47.294;12.182;2022-07-22T10:20:44;26.90;52.90
12006;DHT22;6062;47.294;12.182;2022-07-22T10:23:12;26.80;52.40
12006;DHT22;6062;47.294;12.182;2022-07-22T10:25:52;26.60;52.40
12006;DHT22;6062;47.294;12.182;2022-07-22T10:28:25;26.50;53.30
12006;DHT22;6062;47.294;12.182;2022-07-22T10:33:52;26.30;53.00
12006;DHT22;6062;47.294;12.182;2022-07-22T10:36:34;26.20;53.60
12006;DHT22;6062;47.294;12.182;2022-07-22T10:39:10;26.10;53.90
12006;DHT22;6062;47.294;12.182;2022-07-22T10:41:41;26.00;54.20
12006;DHT22;6062;47.294;12.182;2022-07-22T10:44:09;25.90;54.30
12006;DHT22;6062;47.294;12.182;2022-07-22T10:46:54;25.90;54.50
12006;DHT22;6062;47.294;12.182;2022-07-22T10:49:25;25.90;55.10
12006;DHT22;6062;47.294;12.182;2022-07-22T10:57:42;26.00;53.80
12006;DHT22;6062;47.294;12.182;2022-07-22T11:00:09;26.10;53.90
12006;DHT22;6062;47.294;12.182;2022-07-22T11:02:37;26.10;54.20
12006;DHT22;6062;47.294;12.182;2022-07-22T11:05:04;26.10;53.00
12006;DHT22;6062;47.294;12.182;2022-07-22T11:07:31;26.20;53.60
12006;DHT22;6062;47.294;12.182;2022-07-22T11:10:13;26.20;52.80
12006;DHT22;6062;47.294;12.182;2022-07-22T11:12:44;26.20;52.40
12006;DHT22;6062;47.294;12.182;2022-07-22T11:15:13;26.20;52.90
12006;DHT22;6062;47.294;12.182;2022-07-22T11:17:40;26.20;53.40
12006;DHT22;6062;47.294;12.182;2022-07-22T11:20:11;26.10;53.20
12006;DHT22;6062;47.294;12.182;2022-07-22T11:22:38;26.00;54.50
12006;DHT22;6062;47.294;12.182;2022-07-22T11:25:07;26.00;54.50
12006;DHT22;6062;47.294;12.182;2022-07-22T11:27:34;26.00;54.30
12006;DHT22;6062;47.294;12.182;2022-07-22T11:30:00;25.90;54.30
12006;DHT22;6062;47.294;12.182;2022-07-22T11:32:27;25.80;54.70
12006;DHT22;6062;47.294;12.182;2022-07-22T11:34:56;25.80;54.90
12006;DHT22;6062;47.294;12.182;2022-07-22T11:37:24;25.80;55.40
12006;DHT22;6062;47.294;12.182;2022-07-22T11:40:02;25.70;55.00
12006;DHT22;6062;47.294;12.182;2022-07-22T11:42:30;25.70;55.10
12006;DHT22;6062;47.294;12.182;2022-07-22T11:44:56;25.60;55.70
12006;DHT22;6062;47.294;12.182;2022-07-22T11:47:21;25.60;56.10
12006;DHT22;6062;47.294;12.182;2022-07-22T11:49:47;25.50;56.10
12006;DHT22;6062;47.294;12.182;2022-07-22T11:52:13;25.50;56.20
12006;DHT22;6062;47.294;12.182;2022-07-22T11:54:40;25.40;56.20
12006;DHT22;6062;47.294;12.182;2022-07-22T11:57:07;25.40;57.50
12006;DHT22;6062;47.294;12.182;2022-07-22T11:59:34;25.40;57.10
12006;DHT22;6062;47.294;12.182;2022-07-22T12:02:02;25.30;57.40
12006;DHT22;6062;47.294;12.182;2022-07-22T12:04:32;25.30;57.20
12006;DHT22;6062;47.294;12.182;2022-07-22T12:07:00;25.30;57.80
12006;DHT22;6062;47.294;12.182;2022-07-22T12:09:35;25.30;57.80
12006;DHT22;6062;47.294;12.182;2022-07-22T12:12:02;25.30;58.30
12006;DHT22;6062;47.294;12.182;2022-07-22T12:14:30;25.30;58.20
12006;DHT22;6062;47.294;12.182;2022-07-22T12:17:07;25.40;58.90
12006;DHT22;6062;47.294;12.182;2022-07-22T12:19:36;25.50;58.30
12006;DHT22;6062;47.294;12.182;2022-07-22T12:22:18;25.60;58.20
12006;DHT22;6062;47.294;12.182;2022-07-22T12:24:56;25.70;57.10
12006;DHT22;6062;47.294;12.182;2022-07-22T12:27:25;25.70;56.70
12006;DHT22;6062;47.294;12.182;2022-07-22T12:29:51;25.80;56.90
12006;DHT22;6062;47.294;12.182;2022-07-22T12:32:25;25.90;56.70
12006;DHT22;6062;47.294;12.182;2022-07-22T12:37:33;25.90;56.20
12006;DHT22;6062;47.294;12.182;2022-07-22T12:40:11;25.90;56.70
12006;DHT22;6062;47.294;12.182;2022-07-22T12:43:06;25.90;57.90
12006;DHT22;6062;47.294;12.182;2022-07-22T12:45:35;25.90;56.60
12006;DHT22;6062;47.294;12.182;2022-07-22T12:50:40;25.90;57.00
12006;DHT22;6062;47.294;12.182;2022-07-22T12:53:18;25.80;57.10
12006;DHT22;6062;47.294;12.182;2022-07-22T12:55:48;25.80;56.90
12006;DHT22;6062;47.294;12.182;2022-07-22T12:58:20;25.70;58.00
12006;DHT22;6062;47.294;12.182;2022-07-22T13:00:50;25.70;58.20
12006;DHT22;6062;47.294;12.182;2022-07-22T13:03:18;25.70;58.20
12006;DHT22;6062;47.294;12.182;2022-07-22T13:05:46;25.80;58.30
12006;DHT22;6062;47.294;12.182;2022-07-22T13:08:13;25.90;58.40
12006;DHT22;6062;47.294;12.182;2022-07-22T13:10:40;26.00;58.50
12006;DHT22;6062;47.294;12.182;2022-07-22T13:13:06;26.00;58.90
12006;DHT22;6062;47.294;12.182;2022-07-22T13:15:32;26.10;58.60
12006;DHT22;6062;47.294;12.182;2022-07-22T13:17:58;26.10;58.20
12006;DHT22;6062;47.294;12.182;2022-07-22T13:20:24;26.10;57.90
12006;DHT22;6062;47.294;12.182;2022-07-22T13:22:50;26.00;58.10
12006;DHT22;6062;47.294;12.182;2022-07-22T13:25:15;25.90;58.30
12006;DHT22;6062;47.294;12.182;2022-07-22T13:27:42;25.80;58.40
12006;DHT22;6062;47.294;12.182;2022-07-22T13:30:08;25.70;58.20
12006;DHT22;6062;47.294;12.182;2022-07-22T13:32:34;25.60;59.30
12006;DHT22;6062;47.294;12.182;2022-07-22T13:35:00;25.50;60.10
12006;DHT22;6062;47.294;12.182;2022-07-22T13:37:27;25.50;60.00
12006;DHT22;6062;47.294;12.182;2022-07-22T13:39:52;25.50;59.80
12006;DHT22;6062;47.294;12.182;2022-07-22T13:42:18;25.50;60.10
12006;DHT22;6062;47.294;12.182;2022-07-22T13:44:48;25.50;59.70
12006;DHT22;6062;47.294;12.182;2022-07-22T13:47:16;25.50;59.70
12006;DHT22;6062;47.294;12.182;2022-07-22T13:49:43;25.60;59.20
12006;DHT22;6062;47.294;12.182;2022-07-22T13:52:11;25.60;59.10
12006;DHT22;6062;47.294;12.182;2022-07-22T13:54:38;25.70;59.20
12006;DHT22;6062;47.294;12.182;2022-07-22T13:57:04;25.80;59.60
12006;DHT22;6062;47.294;12.182;2022-07-22T13:59:31;25.90;59.20
12006;DHT22;6062;47.294;12.182;2022-07-22T14:01:58;25.90;59.50
12006;DHT22;6062;47.294;12.182;2022-07-22T14:04:24;25.90;58.60
12006;DHT22;6062;47.294;12.182;2022-07-22T14:06:51;25.80;58.40
12006;DHT22;6062;47.294;12.182;2022-07-22T14:09:16;25.70;58.50
12006;DHT22;6062;47.294;12.182;2022-07-22T14:11:42;25.60;58.90
12006;DHT22;6062;47.294;12.182;2022-07-22T14:14:08;25.60;59.10
12006;DHT22;6062;47.294;12.182;2022-07-22T14:16:35;25.60;59.00
12006;DHT22;6062;47.294;12.182;2022-07-22T14:19:10;25.50;58.80
12006;DHT22;6062;47.294;12.182;2022-07-22T14:21:38;25.50;58.50
12006;DHT22;6062;47.294;12.182;2022-07-22T14:24:07;25.50;58.50
12006;DHT22;6062;47.294;12.182;2022-07-22T14:26:34;25.60;58.50
12006;DHT22;6062;47.294;12.182;2022-07-22T14:29:00;25.60;58.40
12006;DHT22;6062;47.294;12.182;2022-07-22T14:31:27;25.60;58.60
12006;DHT22;6062;47.294;12.182;2022-07-22T14:33:54;25.60;58.40
12006;DHT22;6062;47.294;12.182;2022-07-22T14:36:21;25.60;58.10
12006;DHT22;6062;47.294;12.182;2022-07-22T14:38:46;25.60;57.90
12006;DHT22;6062;47.294;12.182;2022-07-22T14:41:15;25.60;58.10
12006;DHT22;6062;47.294;12.182;2022-07-22T14:43:41;25.70;58.10
12006;DHT22;6062;47.294;12.182;2022-07-22T14:46:07;25.70;57.90
12006;DHT22;6062;47.294;12.182;2022-07-22T14:48:34;25.70;57.90
12006;DHT22;6062;47.294;12.182;2022-07-22T14:51:00;25.80;58.30
12006;DHT22;6062;47.294;12.182;2022-07-22T14:53:26;25.80;58.10
12006;DHT22;6062;47.294;12.182;2022-07-22T14:55:51;25.90;57.70
12006;DHT22;6062;47.294;12.182;2022-07-22T14:58:17;25.90;57.60
12006;DHT22;6062;47.294;12.182;2022-07-22T15:00:44;25.90;57.30
12006;DHT22;6062;47.294;12.182;2022-07-22T15:03:10;25.90;57.50
12006;DHT22;6062;47.294;12.182;2022-07-22T15:05:35;25.90;57.60
12006;DHT22;6062;47.294;12.182;2022-07-22T15:08:01;25.80;57.90
12006;DHT22;6062;47.294;12.182;2022-07-22T15:10:27;25.80;58.30
12006;DHT22;6062;47.294;12.182;2022-07-22T15:12:53;25.70;58.00
12006;DHT22;6062;47.294;12.182;2022-07-22T15:15:18;25.60;58.30
12006;DHT22;6062;47.294;12.182;2022-07-22T15:17:44;25.50;58.60
12006;DHT22;6062;47.294;12.182;2022-07-22T15:20:11;25.40;59.10
12006;DHT22;6062;47.294;12.182;2022-07-22T15:22:37;25.20;59.40
12006;DHT22;6062;47.294;12.182;2022-07-22T15:25:03;25.10;59.60
12006;DHT22;6062;47.294;12.182;2022-07-22T15:27:29;24.90;60.00
12006;DHT22;6062;47.294;12.182;2022-07-22T15:29:55;24.70;60.00
12006;DHT22;6062;47.294;12.182;2022-07-22T15:32:20;24.60;60.60
12006;DHT22;6062;47.294;12.182;2022-07-22T15:34:46;24.40;60.90
12006;DHT22;6062;47.294;12.182;2022-07-22T15:37:12;24.30;61.20
12006;DHT22;6062;47.294;12.182;2022-07-22T15:39:37;24.10;61.40
12006;DHT22;6062;47.294;12.182;2022-07-22T15:42:04;24.00;61.60
12006;DHT22;6062;47.294;12.182;2022-07-22T15:44:30;24.00;61.80
12006;DHT22;6062;47.294;12.182;2022-07-22T15:46:55;23.90;62.10
12006;DHT22;6062;47.294;12.182;2022-07-22T15:49:22;23.80;62.30
12006;DHT22;6062;47.294;12.182;2022-07-22T15:51:48;23.70;62.60
12006;DHT22;6062;47.294;12.182;2022-07-22T15:54:14;23.70;62.70